sensor_id;sensor_type;location;lat;lon;timestamp;P1;durP1;ratioP1;P2;durP2;ratioP2
21820;SDS011;11073;48.586;12.066;2023-07-13T00:01:16;9.35;;;4.43;;
21820;SDS011;11073;48.586;12.066;2023-07-13T00:03:45;8.32;;;4.78;;
21820;SDS011;11073;48.586;12.066;2023-07-13T00:06:14;6.85;;;4.97;;
21820;SDS011;11073;48.586;12.066;2023-07-13T00:08:44;8.10;;;5.40;;
21820;SDS011;11073;48.586;12.066;2023-07-13T00:11:13;6.40;;;4.80;;
21820;SDS011;11073;48.586;12.066;2023-07-13T00:13:41;6.95;;;4.95;;
21820;SDS011;11073;48.586;12.066;2023-07-13T00:16:11;5.75;;;4.88;;
21820;SDS011;11073;48.586;12.066;2023-07-13T00:18:42;7.10;;;5.00;;
21820;SDS011;11073;48.586;12.066;2023-07-13T00:21:11;8.05;;;4.90;;
21820;SDS011;11073;48.586;12.066;2023-07-13T00:23:41;7.68;;;5.70;;
21820;SDS011;11073;48.586;12.066;2023-07-13T00:26:11;8.95;;;5.30;;
21820;SDS011;11073;48.586;12.066;2023-07-13T00:28:41;5.80;;;4.90;;
21820;SDS011;11073;48.586;12.066;2023-07-13T00:31:11;6.70;;;4.57;;
21820;SDS011;11073;48.586;12.066;2023-07-13T00:33:43;6.80;;;4.75;;
21820;SDS011;11073;48.586;12.066;2023-07-13T00:36:13;9.82;;;5.00;;
21820;SDS011;11073;48.586;12.066;2023-07-13T00:38:42;9.00;;;4.93;;
21820;SDS011;11073;48.586;12.066;2023-07-13T00:41:12;8.10;;;5.50;;
21820;SDS011;11073;48.586;12.066;2023-07-13T00:43:40;6.35;;;4.95;;
21820;SDS011;11073;48.586;12.066;2023-07-13T00:46:11;7.82;;;4.90;;
21820;SDS011;11073;48.586;12.066;2023-07-13T00:48:53;6.32;;;4.95;;
21820;SDS011;11073;48.586;12.066;2023-07-13T00:51:26;8.82;;;4.95;;
21820;SDS011;11073;48.586;12.066;2023-07-13T00:54:00;8.05;;;4.50;;
21820;SDS011;11073;48.586;12.066;2023-07-13T00:56:33;7.35;;;4.80;;
21820;SDS011;11073;48.586;12.066;2023-07-13T00:59:03;8.00;;;5.47;;
21820;SDS011;11073;48.586;12.066;2023-07-13T01:01:34;11.40;;;5.70;;
21820;SDS011;11073;48.586;12.066;2023-07-13T01:04:05;7.50;;;5.00;;
21820;SDS011;11073;48.586;12.066;2023-07-13T01:06:35;8.43;;;4.78;;
21820;SDS011;11073;48.586;12.066;2023-07-13T01:09:05;9.20;;;5.47;;
21820;SDS011;11073;48.586;12.066;2023-07-13T01:11:36;9.45;;;5.40;;
21820;SDS011;11073;48.586;12.066;2023-07-13T01:14:05;5.78;;;5.13;;
21820;SDS011;11073;48.586;12.066;2023-07-13T01:16:35;9.48;;;5.10;;
21820;SDS011;11073;48.586;12.066;2023-07-13T01:19:17;14.40;;;5.32;;
21820;SDS011;11073;48.586;12.066;2023-07-13T01:22:05;5.78;;;4.72;;
21820;SDS011;11073;48.586;12.066;2023-07-13T01:24:36;7.88;;;4.95;;
21820;SDS011;11073;48.586;12.066;2023-07-13T01:27:05;8.93;;;4.78;;
21820;SDS011;11073;48.586;12.066;2023-07-13T01:29:36;9.52;;;5.50;;
21820;SDS011;11073;48.586;12.066;2023-07-13T01:32:09;9.77;;;5.18;;
21820;SDS011;11073;48.586;12.066;2023-07-13T01:34:41;7.75;;;5.32;;
21820;SDS011;11073;48.586;12.066;2023-07-13T01:37:12;10.52;;;5.05;;
21820;SDS011;11073;48.586;12.066;2023-07-13T01:39:41;5.82;;;4.35;;
21820;SDS011;11073;48.586;12.066;2023-07-13T01:42:09;6.40;;;4.72;;
21820;SDS011;11073;48.586;12.066;2023-07-13T01:44:38;7.40;;;5.32;;
21820;SDS011;11073;48.586;12.066;2023-07-13T01:47:07;7.75;;;5.35;;
21820;SDS011;11073;48.586;12.066;2023-07-13T01:49:36;7.15;;;4.85;;
21820;SDS011;11073;48.586;12.066;2023-07-13T01:52:05;9.57;;;4.47;;
21820;SDS011;11073;48.586;12.066;2023-07-13T01:54:36;13.77;;;4.97;;
21820;SDS011;11073;48.586;12.066;2023-07-13T01:57:05;6.78;;;3.85;;
21820;SDS011;11073;48.586;12.066;2023-07-13T01:59:34;7.70;;;5.60;;
21820;SDS011;11073;48.586;12.066;2023-07-13T02:02:04;7.30;;;4.43;;
21820;SDS011;11073;48.586;12.066;2023-07-13T02:04:34;11.55;;;5.20;;
21820;SDS011;11073;48.586;12.066;2023-07-13T02:07:03;7.80;;;4.95;;
21820;SDS011;11073;48.586;12.066;2023-07-13T02:09:32;6.95;;;4.65;;
21820;SDS011;11073;48.586;12.066;2023-07-13T02:12:03;7.60;;;5.10;;
21820;SDS011;11073;48.586;12.066;2023-07-13T02:14:33;8.50;;;5.35;;
21820;SDS011;11073;48.586;12.066;2023-07-13T02:17:02;8.38;;;5.57;;
21820;SDS011;11073;48.586;12.066;2023-07-13T02:19:31;7.47;;;5.00;;
21820;SDS011;11073;48.586;12.066;2023-07-13T02:22:00;7.28;;;5.40;;
21820;SDS011;11073;48.586;12.066;2023-07-13T02:24:29;9.40;;;6.13;;
21820;SDS011;11073;48.586;12.066;2023-07-13T02:26:58;10.20;;;5.00;;
21820;SDS011;11073;48.586;12.066;2023-07-13T02:29:28;8.18;;;5.10;;
21820;SDS011;11073;48.586;12.066;2023-07-13T02:31:57;10.98;;;4.65;;
21820;SDS011;11073;48.586;12.066;2023-07-13T02:34:25;8.05;;;4.40;;
21820;SDS011;11073;48.586;12.066;2023-07-13T02:36:54;11.63;;;5.55;;
21820;SDS011;11073;48.586;12.066;2023-07-13T02:39:22;6.85;;;4.93;;
21820;SDS011;11073;48.586;12.066;2023-07-13T02:41:51;7.50;;;4.55;;
21820;SDS011;11073;48.586;12.066;2023-07-13T02:44:20;10.60;;;5.30;;
21820;SDS011;11073;48.586;12.066;2023-07-13T02:46:51;10.48;;;5.18;;
21820;SDS011;11073;48.586;12.066;2023-07-13T02:49:19;11.15;;;5.28;;
21820;SDS011;11073;48.586;12.066;2023-07-13T02:51:48;8.70;;;5.05;;
21820;SDS011;11073;48.586;12.066;2023-07-13T02:54:17;8.73;;;5.38;;
21820;SDS011;11073;48.586;12.066;2023-07-13T02:56:46;10.88;;;5.13;;
21820;SDS011;11073;48.586;12.066;2023-07-13T02:59:15;9.60;;;4.30;;
21820;SDS011;11073;48.586;12.066;2023-07-13T03:01:44;10.00;;;4.60;;
21820;SDS011;11073;48.586;12.066;2023-07-13T03:04:14;9.05;;;5.00;;
21820;SDS011;11073;48.586;12.066;2023-07-13T03:06:47;6.40;;;4.60;;
21820;SDS011;11073;48.586;12.066;2023-07-13T03:09:16;6.18;;;4.43;;
21820;SDS011;11073;48.586;12.066;2023-07-13T03:11:52;7.93;;;4.45;;
21820;SDS011;11073;48.586;12.066;2023-07-13T03:14:30;10.05;;;5.25;;
21820;SDS011;11073;48.586;12.066;2023-07-13T03:17:01;9.15;;;5.22;;
21820;SDS011;11073;48.586;12.066;2023-07-13T03:19:34;11.00;;;4.75;;
21820;SDS011;11073;48.586;12.066;2023-07-13T03:22:04;11.95;;;5.88;;
21820;SDS011;11073;48.586;12.066;2023-07-13T03:24:34;7.82;;;5.60;;
21820;SDS011;11073;48.586;12.066;2023-07-13T03:27:06;7.15;;;5.38;;
21820;SDS011;11073;48.586;12.066;2023-07-13T03:29:39;10.02;;;5.30;;
21820;SDS011;11073;48.586;12.066;2023-07-13T03:32:09;10.88;;;5.00;;
21820;SDS011;11073;48.586;12.066;2023-07-13T03:34:38;9.73;;;5.82;;
21820;SDS011;11073;48.586;12.066;2023-07-13T03:37:08;8.07;;;4.88;;
21820;SDS011;11073;48.586;12.066;2023-07-13T03:39:37;8.68;;;5.13;;
21820;SDS011;11073;48.586;12.066;2023-07-13T03:42:06;9.68;;;5.20;;
21820;SDS011;11073;48.586;12.066;2023-07-13T03:44:35;8.43;;;5.93;;
21820;SDS011;11073;48.586;12.066;2023-07-13T03:47:04;11.82;;;5.35;;
21820;SDS011;11073;48.586;12.066;2023-07-13T03:49:36;10.60;;;6.40;;
21820;SDS011;11073;48.586;12.066;2023-07-13T03:52:07;10.20;;;6.15;;
21820;SDS011;11073;48.586;12.066;2023-07-13T03:54:36;13.43;;;6.03;;
21820;SDS011;11073;48.586;12.066;2023-07-13T03:57:05;12.27;;;5.85;;
21820;SDS011;11073;48.586;12.066;2023-07-13T03:59:36;12.98;;;5.82;;
21820;SDS011;11073;48.586;12.066;2023-07-13T04:02:05;11.35;;;6.38;;
21820;SDS011;11073;48.586;12.066;2023-07-13T04:04:34;9.98;;;5.90;;
21820;SDS011;11073;48.586;12.066;2023-07-13T04:07:03;11.45;;;6.40;;
21820;SDS011;11073;48.586;12.066;2023-07-13T04:09:33;13.65;;;6.25;;
21820;SDS011;11073;48.586;12.066;2023-07-13T04:12:03;8.65;;;6.10;;
21820;SDS011;11073;48.586;12.066;2023-07-13T04:14:32;8.40;;;5.70;;
21820;SDS011;11073;48.586;12.066;2023-07-13T04:17:01;16.90;;;6.68;;
21820;SDS011;11073;48.586;12.066;2023-07-13T04:19:30;10.45;;;6.65;;
21820;SDS011;11073;48.586;12.066;2023-07-13T04:21:59;16.65;;;6.28;;
21820;SDS011;11073;48.586;12.066;2023-07-13T04:24:28;10.73;;;5.88;;
21820;SDS011;11073;48.586;12.066;2023-07-13T04:26:58;11.90;;;6.20;;
21820;SDS011;11073;48.586;12.066;2023-07-13T04:29:28;12.25;;;5.53;;
21820;SDS011;11073;48.586;12.066;2023-07-13T04:31:57;12.13;;;6.00;;
21820;SDS011;11073;48.586;12.066;2023-07-13T04:34:26;14.07;;;6.55;;
21820;SDS011;11073;48.586;12.066;2023-07-13T04:36:55;9.68;;;5.70;;
21820;SDS011;11073;48.586;12.066;2023-07-13T04:39:24;8.93;;;6.07;;
21820;SDS011;11073;48.586;12.066;2023-07-13T04:41:52;10.55;;;5.47;;
21820;SDS011;11073;48.586;12.066;2023-07-13T04:44:24;7.05;;;5.30;;
21820;SDS011;11073;48.586;12.066;2023-07-13T04:46:52;10.63;;;4.90;;
21820;SDS011;11073;48.586;12.066;2023-07-13T04:49:21;8.20;;;5.38;;
21820;SDS011;11073;48.586;12.066;2023-07-13T04:51:50;6.80;;;5.15;;
21820;SDS011;11073;48.586;12.066;2023-07-13T04:54:19;8.50;;;5.13;;
21820;SDS011;11073;48.586;12.066;2023-07-13T04:56:47;7.65;;;4.88;;
21820;SDS011;11073;48.586;12.066;2023-07-13T04:59:16;8.13;;;4.50;;
21820;SDS011;11073;48.586;12.066;2023-07-13T05:01:46;9.80;;;5.18;;
21820;SDS011;11073;48.586;12.066;2023-07-13T05:04:15;7.95;;;4.53;;
21820;SDS011;11073;48.586;12.066;2023-07-13T05:06:43;8.32;;;4.45;;
21820;SDS011;11073;48.586;12.066;2023-07-13T05:09:12;6.65;;;4.28;;
21820;SDS011;11073;48.586;12.066;2023-07-13T05:11:41;12.40;;;4.93;;
21820;SDS011;11073;48.586;12.066;2023-07-13T05:14:10;8.85;;;4.35;;
21820;SDS011;11073;48.586;12.066;2023-07-13T05:16:38;7.72;;;4.90;;
21820;SDS011;11073;48.586;12.066;2023-07-13T05:19:08;8.13;;;4.30;;
21820;SDS011;11073;48.586;12.066;2023-07-13T05:21:36;6.85;;;4.00;;
21820;SDS011;11073;48.586;12.066;2023-07-13T05:24:05;6.72;;;4.68;;
21820;SDS011;11073;48.586;12.066;2023-07-13T05:26:51;10.65;;;4.43;;
21820;SDS011;11073;48.586;12.066;2023-07-13T05:29:20;5.93;;;4.35;;
21820;SDS011;11073;48.586;12.066;2023-07-13T05:31:49;9.25;;;4.85;;
21820;SDS011;11073;48.586;12.066;2023-07-13T05:34:19;8.48;;;4.40;;
21820;SDS011;11073;48.586;12.066;2023-07-13T05:36:47;8.68;;;4.32;;
21820;SDS011;11073;48.586;12.066;2023-07-13T05:39:16;8.93;;;4.45;;
21820;SDS011;11073;48.586;12.066;2023-07-13T05:41:45;6.43;;;4.63;;
21820;SDS011;11073;48.586;12.066;2023-07-13T05:44:14;6.20;;;3.55;;
21820;SDS011;11073;48.586;12.066;2023-07-13T05:46:42;10.85;;;4.25;;
21820;SDS011;11073;48.586;12.066;2023-07-13T05:49:11;10.40;;;4.53;;
21820;SDS011;11073;48.586;12.066;2023-07-13T05:51:41;8.07;;;3.97;;
21820;SDS011;11073;48.586;12.066;2023-07-13T05:54:09;5.30;;;3.38;;
21820;SDS011;11073;48.586;12.066;2023-07-13T05:56:38;7.53;;;3.80;;
21820;SDS011;11073;48.586;12.066;2023-07-13T05:59:07;5.68;;;3.67;;
21820;SDS011;11073;48.586;12.066;2023-07-13T06:01:36;7.70;;;3.60;;
21820;SDS011;11073;48.586;12.066;2023-07-13T06:04:04;9.10;;;3.83;;
21820;SDS011;11073;48.586;12.066;2023-07-13T06:06:33;7.88;;;3.97;;
21820;SDS011;11073;48.586;12.066;2023-07-13T06:09:03;6.53;;;4.03;;
21820;SDS011;11073;48.586;12.066;2023-07-13T06:11:31;5.32;;;3.40;;
21820;SDS011;11073;48.586;12.066;2023-07-13T06:14:00;5.00;;;3.30;;
21820;SDS011;11073;48.586;12.066;2023-07-13T06:16:28;7.10;;;3.05;;
21820;SDS011;11073;48.586;12.066;2023-07-13T06:18:56;6.65;;;3.42;;
21820;SDS011;11073;48.586;12.066;2023-07-13T06:21:25;5.82;;;2.90;;
21820;SDS011;11073;48.586;12.066;2023-07-13T06:23:53;4.72;;;2.75;;
21820;SDS011;11073;48.586;12.066;2023-07-13T06:26:23;5.20;;;3.20;;
21820;SDS011;11073;48.586;12.066;2023-07-13T06:28:52;4.75;;;2.92;;
21820;SDS011;11073;48.586;12.066;2023-07-13T06:31:20;4.78;;;2.55;;
21820;SDS011;11073;48.586;12.066;2023-07-13T06:33:49;4.72;;;2.80;;
21820;SDS011;11073;48.586;12.066;2023-07-13T06:36:18;7.72;;;3.20;;
21820;SDS011;11073;48.586;12.066;2023-07-13T06:38:46;4.63;;;2.65;;
21820;SDS011;11073;48.586;12.066;2023-07-13T06:41:14;5.93;;;3.30;;
21820;SDS011;11073;48.586;12.066;2023-07-13T06:43:44;10.13;;;3.60;;
21820;SDS011;11073;48.586;12.066;2023-07-13T06:46:12;7.78;;;3.10;;
21820;SDS011;11073;48.586;12.066;2023-07-13T06:48:41;7.45;;;3.30;;
21820;SDS011;11073;48.586;12.066;2023-07-13T06:51:10;6.40;;;2.72;;
21820;SDS011;11073;48.586;12.066;2023-07-13T06:53:39;8.68;;;3.13;;
21820;SDS011;11073;48.586;12.066;2023-07-13T06:56:07;6.38;;;3.03;;
21820;SDS011;11073;48.586;12.066;2023-07-13T06:58:37;4.90;;;2.47;;
21820;SDS011;11073;48.586;12.066;2023-07-13T07:01:06;10.13;;;3.13;;
21820;SDS011;11073;48.586;12.066;2023-07-13T07:03:35;3.53;;;2.55;;
21820;SDS011;11073;48.586;12.066;2023-07-13T07:06:07;9.25;;;2.72;;
21820;SDS011;11073;48.586;12.066;2023-07-13T07:08:41;5.03;;;2.80;;
21820;SDS011;11073;48.586;12.066;2023-07-13T07:11:12;5.60;;;2.53;;
21820;SDS011;11073;48.586;12.066;2023-07-13T07:13:41;5.90;;;2.58;;
21820;SDS011;11073;48.586;12.066;2023-07-13T07:16:11;6.22;;;2.38;;
21820;SDS011;11073;48.586;12.066;2023-07-13T07:18:40;3.60;;;2.03;;
21820;SDS011;11073;48.586;12.066;2023-07-13T07:21:09;6.10;;;2.40;;
21820;SDS011;11073;48.586;12.066;2023-07-13T07:23:38;7.38;;;2.97;;
21820;SDS011;11073;48.586;12.066;2023-07-13T07:26:07;5.70;;;2.40;;
21820;SDS011;11073;48.586;12.066;2023-07-13T07:28:37;4.93;;;2.50;;
21820;SDS011;11073;48.586;12.066;2023-07-13T07:31:09;7.70;;;2.63;;
21820;SDS011;11073;48.586;12.066;2023-07-13T07:33:42;4.22;;;2.28;;
21820;SDS011;11073;48.586;12.066;2023-07-13T07:36:11;5.93;;;2.53;;
21820;SDS011;11073;48.586;12.066;2023-07-13T07:38:42;4.25;;;2.53;;
21820;SDS011;11073;48.586;12.066;2023-07-13T07:41:12;6.38;;;2.60;;
21820;SDS011;11073;48.586;12.066;2023-07-13T07:43:43;5.20;;;2.20;;
21820;SDS011;11073;48.586;12.066;2023-07-13T07:46:12;5.32;;;2.58;;
21820;SDS011;11073;48.586;12.066;2023-07-13T07:48:43;4.32;;;2.28;;
21820;SDS011;11073;48.586;12.066;2023-07-13T07:51:11;7.30;;;2.40;;
21820;SDS011;11073;48.586;12.066;2023-07-13T07:53:40;5.38;;;1.95;;
21820;SDS011;11073;48.586;12.066;2023-07-13T07:56:09;6.38;;;2.60;;
21820;SDS011;11073;48.586;12.066;2023-07-13T07:58:41;8.60;;;2.10;;
21820;SDS011;11073;48.586;12.066;2023-07-13T08:01:12;6.57;;;2.40;;
21820;SDS011;11073;48.586;12.066;2023-07-13T08:03:45;6.05;;;2.53;;
21820;SDS011;11073;48.586;12.066;2023-07-13T08:06:17;3.85;;;2.17;;
21820;SDS011;11073;48.586;12.066;2023-07-13T08:08:49;10.05;;;2.10;;
21820;SDS011;11073;48.586;12.066;2023-07-13T08:11:18;5.03;;;2.25;;
21820;SDS011;11073;48.586;12.066;2023-07-13T08:13:52;8.90;;;2.40;;
21820;SDS011;11073;48.586;12.066;2023-07-13T08:16:22;6.10;;;2.38;;
21820;SDS011;11073;48.586;12.066;2023-07-13T08:18:52;4.97;;;2.38;;
21820;SDS011;11073;48.586;12.066;2023-07-13T08:21:21;3.75;;;1.98;;
21820;SDS011;11073;48.586;12.066;2023-07-13T08:23:49;5.63;;;2.17;;
21820;SDS011;11073;48.586;12.066;2023-07-13T08:26:18;6.40;;;2.40;;
21820;SDS011;11073;48.586;12.066;2023-07-13T08:28:47;4.07;;;2.17;;
21820;SDS011;11073;48.586;12.066;2023-07-13T08:31:15;3.95;;;1.98;;
21820;SDS011;11073;48.586;12.066;2023-07-13T08:33:44;5.13;;;2.47;;
21820;SDS011;11073;48.586;12.066;2023-07-13T08:36:14;4.60;;;2.00;;
21820;SDS011;11073;48.586;12.066;2023-07-13T08:38:43;4.93;;;1.95;;
21820;SDS011;11073;48.586;12.066;2023-07-13T08:41:12;4.30;;;1.80;;
21820;SDS011;11073;48.586;12.066;2023-07-13T08:43:47;3.42;;;1.63;;
21820;SDS011;11073;48.586;12.066;2023-07-13T08:46:19;6.20;;;2.17;;
21820;SDS011;11073;48.586;12.066;2023-07-13T08:48:56;4.13;;;1.77;;
21820;SDS011;11073;48.586;12.066;2023-07-13T08:51:30;3.08;;;1.60;;
21820;SDS011;11073;48.586;12.066;2023-07-13T08:54:05;3.58;;;1.88;;
21820;SDS011;11073;48.586;12.066;2023-07-13T08:56:40;4.13;;;1.77;;
21820;SDS011;11073;48.586;12.066;2023-07-13T08:59:10;3.42;;;1.80;;
21820;SDS011;11073;48.586;12.066;2023-07-13T09:01:48;4.85;;;1.73;;
21820;SDS011;11073;48.586;12.066;2023-07-13T09:04:28;3.33;;;1.70;;
21820;SDS011;11073;48.586;12.066;2023-07-13T09:07:05;4.40;;;1.98;;
21820;SDS011;11073;48.586;12.066;2023-07-13T09:09:44;4.32;;;1.88;;
21820;SDS011;11073;48.586;12.066;2023-07-13T09:12:24;5.22;;;1.90;;
21820;SDS011;11073;48.586;12.066;2023-07-13T09:15:01;2.67;;;1.92;;
21820;SDS011;11073;48.586;12.066;2023-07-13T09:17:33;4.72;;;2.10;;
21820;SDS011;11073;48.586;12.066;2023-07-13T09:20:10;7.13;;;2.10;;
21820;SDS011;11073;48.586;12.066;2023-07-13T09:22:47;5.57;;;1.80;;
21820;SDS011;11073;48.586;12.066;2023-07-13T09:25:21;3.78;;;1.50;;
21820;SDS011;11073;48.586;12.066;2023-07-13T09:27:56;3.33;;;1.60;;
21820;SDS011;11073;48.586;12.066;2023-07-13T09:30:30;3.88;;;1.70;;
21820;SDS011;11073;48.586;12.066;2023-07-13T09:33:05;4.85;;;1.60;;
21820;SDS011;11073;48.586;12.066;2023-07-13T09:35:35;4.05;;;1.80;;
21820;SDS011;11073;48.586;12.066;2023-07-13T09:38:12;3.38;;;1.83;;
21820;SDS011;11073;48.586;12.066;2023-07-13T09:40:44;7.63;;;2.13;;
21820;SDS011;11073;48.586;12.066;2023-07-13T09:43:22;4.75;;;1.67;;
21820;SDS011;11073;48.586;12.066;2023-07-13T09:45:51;3.65;;;1.67;;
21820;SDS011;11073;48.586;12.066;2023-07-13T09:48:20;3.20;;;1.90;;
21820;SDS011;11073;48.586;12.066;2023-07-13T09:50:49;4.05;;;1.70;;
21820;SDS011;11073;48.586;12.066;2023-07-13T09:53:25;5.90;;;1.88;;
21820;SDS011;11073;48.586;12.066;2023-07-13T09:55:59;3.05;;;1.65;;
21820;SDS011;11073;48.586;12.066;2023-07-13T09:58:29;3.55;;;2.05;;
21820;SDS011;11073;48.586;12.066;2023-07-13T10:01:00;4.63;;;2.00;;
21820;SDS011;11073;48.586;12.066;2023-07-13T10:03:36;5.20;;;1.83;;
21820;SDS011;11073;48.586;12.066;2023-07-13T10:06:11;5.00;;;1.50;;
21820;SDS011;11073;48.586;12.066;2023-07-13T10:08:43;2.88;;;1.80;;
21820;SDS011;11073;48.586;12.066;2023-07-13T10:11:16;4.40;;;1.60;;
21820;SDS011;11073;48.586;12.066;2023-07-13T10:13:50;5.25;;;2.03;;
21820;SDS011;11073;48.586;12.066;2023-07-13T10:16:21;3.28;;;1.52;;
21820;SDS011;11073;48.586;12.066;2023-07-13T10:18:51;4.20;;;1.67;;
21820;SDS011;11073;48.586;12.066;2023-07-13T10:21:28;4.35;;;2.13;;
21820;SDS011;11073;48.586;12.066;2023-07-13T10:24:05;5.47;;;1.90;;
21820;SDS011;11073;48.586;12.066;2023-07-13T10:26:44;3.78;;;1.52;;
21820;SDS011;11073;48.586;12.066;2023-07-13T10:29:16;4.25;;;1.90;;
21820;SDS011;11073;48.586;12.066;2023-07-13T10:31:46;4.00;;;1.80;;
21820;SDS011;11073;48.586;12.066;2023-07-13T10:34:15;4.28;;;1.50;;
21820;SDS011;11073;48.586;12.066;2023-07-13T10:36:45;5.85;;;1.83;;
21820;SDS011;11073;48.586;12.066;2023-07-13T10:39:19;3.38;;;1.48;;
21820;SDS011;11073;48.586;12.066;2023-07-13T10:41:51;4.90;;;1.50;;
21820;SDS011;11073;48.586;12.066;2023-07-13T10:44:23;3.55;;;1.67;;
21820;SDS011;11073;48.586;12.066;2023-07-13T10:46:56;5.95;;;1.80;;
21820;SDS011;11073;48.586;12.066;2023-07-13T10:49:27;3.38;;;1.40;;
21820;SDS011;11073;48.586;12.066;2023-07-13T10:51:58;5.50;;;1.70;;
21820;SDS011;11073;48.586;12.066;2023-07-13T10:54:30;3.88;;;1.33;;
21820;SDS011;11073;48.586;12.066;2023-07-13T10:57:07;2.30;;;1.42;;
21820;SDS011;11073;48.586;12.066;2023-07-13T10:59:48;6.10;;;1.60;;
21820;SDS011;11073;48.586;12.066;2023-07-13T11:02:41;4.35;;;1.48;;
21820;SDS011;11073;48.586;12.066;2023-07-13T11:05:15;3.80;;;1.55;;
21820;SDS011;11073;48.586;12.066;2023-07-13T11:07:56;2.53;;;1.17;;
21820;SDS011;11073;48.586;12.066;2023-07-13T11:10:50;3.63;;;1.40;;
21820;SDS011;11073;48.586;12.066;2023-07-13T11:13:38;3.83;;;1.70;;
21820;SDS011;11073;48.586;12.066;2023-07-13T11:16:35;2.35;;;1.17;;
21820;SDS011;11073;48.586;12.066;2023-07-13T11:19:24;2.25;;;1.45;;
21820;SDS011;11073;48.586;12.066;2023-07-13T11:22:02;2.30;;;1.40;;
21820;SDS011;11073;48.586;12.066;2023-07-13T11:24:58;2.33;;;1.15;;
21820;SDS011;11073;48.586;12.066;2023-07-13T11:27:41;4.30;;;1.77;;
21820;SDS011;11073;48.586;12.066;2023-07-13T11:30:22;4.05;;;1.60;;
21820;SDS011;11073;48.586;12.066;2023-07-13T11:33:04;3.38;;;1.25;;
21820;SDS011;11073;48.586;12.066;2023-07-13T11:35:42;1.95;;;1.25;;
21820;SDS011;11073;48.586;12.066;2023-07-13T11:38:16;6.35;;;1.70;;
21820;SDS011;11073;48.586;12.066;2023-07-13T11:40:47;4.28;;;1.40;;
21820;SDS011;11073;48.586;12.066;2023-07-13T11:43:23;2.88;;;1.40;;
21820;SDS011;11073;48.586;12.066;2023-07-13T11:45:53;4.38;;;1.58;;
21820;SDS011;11073;48.586;12.066;2023-07-13T11:48:23;4.78;;;1.60;;
21820;SDS011;11073;48.586;12.066;2023-07-13T11:50:56;2.92;;;1.25;;
21820;SDS011;11073;48.586;12.066;2023-07-13T11:53:28;3.08;;;1.38;;
21820;SDS011;11073;48.586;12.066;2023-07-13T11:56:02;2.72;;;1.48;;
21820;SDS011;11073;48.586;12.066;2023-07-13T11:58:32;2.85;;;1.70;;
21820;SDS011;11073;48.586;12.066;2023-07-13T12:01:02;3.08;;;1.40;;
21820;SDS011;11073;48.586;12.066;2023-07-13T12:03:33;4.75;;;1.58;;
21820;SDS011;11073;48.586;12.066;2023-07-13T12:06:04;4.38;;;1.55;;
21820;SDS011;11073;48.586;12.066;2023-07-13T12:08:37;3.25;;;1.63;;
21820;SDS011;11073;48.586;12.066;2023-07-13T12:11:13;4.65;;;1.50;;
21820;SDS011;11073;48.586;12.066;2023-07-13T12:13:46;5.15;;;1.70;;
21820;SDS011;11073;48.586;12.066;2023-07-13T12:16:17;3.20;;;1.50;;
21820;SDS011;11073;48.586;12.066;2023-07-13T12:18:51;4.80;;;1.55;;
21820;SDS011;11073;48.586;12.066;2023-07-13T12:21:22;2.42;;;1.50;;
21820;SDS011;11073;48.586;12.066;2023-07-13T12:23:58;2.97;;;1.63;;
21820;SDS011;11073;48.586;12.066;2023-07-13T12:26:29;5.05;;;1.63;;
21820;SDS011;11073;48.586;12.066;2023-07-13T12:29:01;6.25;;;1.80;;
21820;SDS011;11073;48.586;12.066;2023-07-13T12:31:35;4.90;;;1.55;;
21820;SDS011;11073;48.586;12.066;2023-07-13T12:34:07;2.58;;;1.40;;
21820;SDS011;11073;48.586;12.066;2023-07-13T12:36:38;3.63;;;1.33;;
21820;SDS011;11073;48.586;12.066;2023-07-13T12:39:14;2.53;;;1.48;;
21820;SDS011;11073;48.586;12.066;2023-07-13T12:41:46;6.65;;;1.80;;
21820;SDS011;11073;48.586;12.066;2023-07-13T12:44:17;2.30;;;1.45;;
21820;SDS011;11073;48.586;12.066;2023-07-13T12:46:54;3.58;;;1.58;;
21820;SDS011;11073;48.586;12.066;2023-07-13T12:49:27;2.88;;;1.52;;
21820;SDS011;11073;48.586;12.066;2023-07-13T12:52:00;3.15;;;1.70;;
21820;SDS011;11073;48.586;12.066;2023-07-13T12:54:31;2.20;;;1.38;;
21820;SDS011;11073;48.586;12.066;2023-07-13T12:57:00;2.15;;;1.30;;
21820;SDS011;11073;48.586;12.066;2023-07-13T12:59:32;4.60;;;1.60;;
21820;SDS011;11073;48.586;12.066;2023-07-13T13:02:15;2.20;;;1.38;;
21820;SDS011;11073;48.586;12.066;2023-07-13T13:04:55;3.78;;;1.60;;
21820;SDS011;11073;48.586;12.066;2023-07-13T13:07:24;2.42;;;1.65;;
21820;SDS011;11073;48.586;12.066;2023-07-13T13:09:54;2.28;;;1.30;;
21820;SDS011;11073;48.586;12.066;2023-07-13T13:12:23;3.78;;;1.90;;
21820;SDS011;11073;48.586;12.066;2023-07-13T13:14:55;3.95;;;1.70;;
21820;SDS011;11073;48.586;12.066;2023-07-13T13:17:24;4.22;;;1.50;;
21820;SDS011;11073;48.586;12.066;2023-07-13T13:19:58;3.78;;;1.85;;
21820;SDS011;11073;48.586;12.066;2023-07-13T13:22:27;4.90;;;1.60;;
21820;SDS011;11073;48.586;12.066;2023-07-13T13:24:56;4.60;;;1.60;;
21820;SDS011;11073;48.586;12.066;2023-07-13T13:27:25;3.85;;;1.45;;
21820;SDS011;11073;48.586;12.066;2023-07-13T13:29:55;3.45;;;1.48;;
21820;SDS011;11073;48.586;12.066;2023-07-13T13:32:24;1.75;;;1.48;;
21820;SDS011;11073;48.586;12.066;2023-07-13T13:34:52;4.28;;;1.50;;
21820;SDS011;11073;48.586;12.066;2023-07-13T13:37:22;2.45;;;1.48;;
21820;SDS011;11073;48.586;12.066;2023-07-13T13:39:52;1.88;;;1.40;;
21820;SDS011;11073;48.586;12.066;2023-07-13T13:42:35;2.55;;;1.20;;
21820;SDS011;11073;48.586;12.066;2023-07-13T13:45:07;6.03;;;1.52;;
21820;SDS011;11073;48.586;12.066;2023-07-13T13:47:36;6.85;;;1.63;;
21820;SDS011;11073;48.586;12.066;2023-07-13T13:50:12;3.63;;;1.50;;
21820;SDS011;11073;48.586;12.066;2023-07-13T13:52:43;3.25;;;1.50;;
21820;SDS011;11073;48.586;12.066;2023-07-13T13:55:13;3.92;;;1.67;;
21820;SDS011;11073;48.586;12.066;2023-07-13T13:57:42;4.63;;;1.77;;
21820;SDS011;11073;48.586;12.066;2023-07-13T14:00:13;3.60;;;1.27;;
21820;SDS011;11073;48.586;12.066;2023-07-13T14:02:45;2.47;;;1.42;;
21820;SDS011;11073;48.586;12.066;2023-07-13T14:05:18;4.07;;;1.50;;
21820;SDS011;11073;48.586;12.066;2023-07-13T14:07:50;5.53;;;1.55;;
21820;SDS011;11073;48.586;12.066;2023-07-13T14:10:20;2.17;;;1.40;;
21820;SDS011;11073;48.586;12.066;2023-07-13T14:12:50;4.97;;;1.77;;
21820;SDS011;11073;48.586;12.066;2023-07-13T14:15:24;3.67;;;1.75;;
21820;SDS011;11073;48.586;12.066;2023-07-13T14:17:55;3.20;;;1.55;;
21820;SDS011;11073;48.586;12.066;2023-07-13T14:20:25;3.45;;;1.60;;
21820;SDS011;11073;48.586;12.066;2023-07-13T14:22:54;5.38;;;1.42;;
21820;SDS011;11073;48.586;12.066;2023-07-13T14:25:24;3.33;;;1.50;;
21820;SDS011;11073;48.586;12.066;2023-07-13T14:27:53;3.10;;;1.40;;
21820;SDS011;11073;48.586;12.066;2023-07-13T14:30:29;4.72;;;1.42;;
21820;SDS011;11073;48.586;12.066;2023-07-13T14:32:57;2.25;;;1.30;;
21820;SDS011;11073;48.586;12.066;2023-07-13T14:35:26;2.20;;;1.60;;
21820;SDS011;11073;48.586;12.066;2023-07-13T14:37:55;4.85;;;1.75;;
21820;SDS011;11073;48.586;12.066;2023-07-13T14:40:25;2.50;;;1.30;;
21820;SDS011;11073;48.586;12.066;2023-07-13T14:42:57;2.67;;;1.52;;
21820;SDS011;11073;48.586;12.066;2023-07-13T14:45:26;2.47;;;1.50;;
21820;SDS011;11073;48.586;12.066;2023-07-13T14:47:57;2.95;;;1.23;;
21820;SDS011;11073;48.586;12.066;2023-07-13T14:50:28;3.50;;;1.20;;
21820;SDS011;11073;48.586;12.066;2023-07-13T14:52:59;2.38;;;1.40;;
21820;SDS011;11073;48.586;12.066;2023-07-13T14:55:28;2.03;;;1.38;;
21820;SDS011;11073;48.586;12.066;2023-07-13T14:57:57;4.65;;;1.45;;